sensor_id;sensor_type;location;lat;lon;timestamp;pressure;altitude;pressure_sealevel;temperature;humidity
66668;BME280;57205;51.438;-2.006;2023-03-21T00:01:01;100504.59;;;9.81;100.00
66668;BME280;57205;51.438;-2.006;2023-03-21T00:03:31;100501.91;;;9.76;100.00
66668;BME280;57205;51.438;-2.006;2023-03-21T00:05:58;100490.97;;;9.77;100.00
66668;BME280;57205;51.438;-2.006;2023-03-21T00:08:24;100482.41;;;9.75;100.00
66668;BME280;57205;51.438;-2.006;2023-03-21T00:10:56;100482.94;;;9.72;100.00
66668;BME280;57205;51.438;-2.006;2023-03-21T00:13:22;100480.00;;;9.69;100.00
66668;BME280;57205;51.438;-2.006;2023-03-21T00:15:47;100458.06;;;9.67;100.00
66668;BME280;57205;51.438;-2.006;2023-03-21T00:18:18;100471.41;;;9.62;100.00
66668;BME280;57205;51.438;-2.006;2023-03-21T00:20:56;100462.84;;;9.60;100.00
66668;BME280;57205;51.438;-2.006;2023-03-21T00:23:22;100464.44;;;9.61;100.00
66668;BME280;57205;51.438;-2.006;2023-03-21T00:25:48;100456.97;;;9.58;100.00
66668;BME280;57205;51.438;-2.006;2023-03-21T00:28:13;100461.22;;;9.59;100.00
66668;BME280;57205;51.438;-2.006;2023-03-21T00:30:38;100452.16;;;9.60;100.00
66668;BME280;57205;51.438;-2.006;2023-03-21T00:33:04;100453.22;;;9.59;100.00
66668;BME280;57205;51.438;-2.006;2023-03-21T00:35:30;100439.88;;;9.59;100.00
66668;BME280;57205;51.438;-2.006;2023-03-21T00:37:55;100446.84;;;9.60;100.00
66668;BME280;57205;51.438;-2.006;2023-03-21T00:40:20;100452.16;;;9.60;100.00
66668;BME280;57205;51.438;-2.006;2023-03-21T00:42:45;100457.50;;;9.60;100.00
66668;BME280;57205;51.438;-2.006;2023-03-21T00:45:11;100467.38;;;9.59;100.00
66668;BME280;57205;51.438;-2.006;2023-03-21T00:47:36;100459.38;;;9.64;100.00
66668;BME280;57205;51.438;-2.006;2023-03-21T00:50:02;100458.84;;;9.62;100.00
66668;BME280;57205;51.438;-2.006;2023-03-21T00:52:28;100436.69;;;9.62;100.00
66668;BME280;57205;51.438;-2.006;2023-03-21T00:54:53;100436.69;;;9.62;100.00
66668;BME280;57205;51.438;-2.006;2023-03-21T00:57:18;100435.59;;;9.63;100.00
66668;BME280;57205;51.438;-2.006;2023-03-21T00:59:44;100427.09;;;9.66;100.00
66668;BME280;57205;51.438;-2.006;2023-03-21T01:02:09;100429.75;;;9.66;100.00
66668;BME280;57205;51.438;-2.006;2023-03-21T01:04:38;100422.28;;;9.68;100.00
66668;BME280;57205;51.438;-2.006;2023-03-21T01:07:04;100425.72;;;9.63;100.00
66668;BME280;57205;51.438;-2.006;2023-03-21T01:09:29;100416.91;;;9.63;100.00
66668;BME280;57205;51.438;-2.006;2023-03-21T01:11:54;100412.13;;;9.65;100.00
66668;BME280;57205;51.438;-2.006;2023-03-21T01:14:20;100409.72;;;9.63;100.00
66668;BME280;57205;51.438;-2.006;2023-03-21T01:16:46;100409.97;;;9.62;100.00
66668;BME280;57205;51.438;-2.006;2023-03-21T01:19:13;100408.91;;;9.63;100.00
66668;BME280;57205;51.438;-2.006;2023-03-21T01:21:39;100412.91;;;9.65;100.00
66668;BME280;57205;51.438;-2.006;2023-03-21T01:24:04;100404.38;;;9.63;100.00
66668;BME280;57205;51.438;-2.006;2023-03-21T01:26:30;100401.16;;;9.61;100.00
66668;BME280;57205;51.438;-2.006;2023-03-21T01:28:55;100397.66;;;9.61;100.00
66668;BME280;57205;51.438;-2.006;2023-03-21T01:31:20;100393.69;;;9.58;100.00
66668;BME280;57205;51.438;-2.006;2023-03-21T01:33:46;100393.91;;;9.57;100.00
66668;BME280;57205;51.438;-2.006;2023-03-21T01:36:16;100392.31;;;9.56;100.00
66668;BME280;57205;51.438;-2.006;2023-03-21T01:38:41;100387.50;;;9.53;100.00
66668;BME280;57205;51.438;-2.006;2023-03-21T01:41:08;100386.16;;;9.50;100.00
66668;BME280;57205;51.438;-2.006;2023-03-21T01:43:40;100388.00;;;9.45;100.00
66668;BME280;57205;51.438;-2.006;2023-03-21T01:48:31;100382.13;;;9.43;100.00
66668;BME280;57205;51.438;-2.006;2023-03-21T01:50:56;100375.69;;;9.39;100.00
66668;BME280;57205;51.438;-2.006;2023-03-21T01:53:23;100368.22;;;9.36;100.00
66668;BME280;57205;51.438;-2.006;2023-03-21T01:55:54;100367.69;;;9.34;100.00
66668;BME280;57205;51.438;-2.006;2023-03-21T01:58:19;100361.53;;;9.33;100.00
66668;BME280;57205;51.438;-2.006;2023-03-21T02:00:45;100367.69;;;9.34;100.00
66668;BME280;57205;51.438;-2.006;2023-03-21T02:03:11;100359.94;;;9.32;100.00
66668;BME280;57205;51.438;-2.006;2023-03-21T02:08:08;100364.97;;;9.24;100.00
66668;BME280;57205;51.438;-2.006;2023-03-21T02:10:34;100355.38;;;9.23;100.00
66668;BME280;57205;51.438;-2.006;2023-03-21T02:13:02;100356.94;;;9.24;100.00
66668;BME280;57205;51.438;-2.006;2023-03-21T02:15:33;100346.28;;;9.24;100.00
66668;BME280;57205;51.438;-2.006;2023-03-21T02:25:59;100328.91;;;9.16;100.00
66668;BME280;57205;51.438;-2.006;2023-03-21T02:28:39;100326.22;;;9.16;100.00
66668;BME280;57205;51.438;-2.006;2023-03-21T02:46:58;100307.00;;;9.14;100.00
66668;BME280;57205;51.438;-2.006;2023-03-21T02:49:26;100301.94;;;9.13;100.00
66668;BME280;57205;51.438;-2.006;2023-03-21T02:51:54;100305.69;;;9.12;100.00
66668;BME280;57205;51.438;-2.006;2023-03-21T02:54:21;100306.19;;;9.09;100.00
66668;BME280;57205;51.438;-2.006;2023-03-21T02:56:48;100290.97;;;9.09;100.00
66668;BME280;57205;51.438;-2.006;2023-03-21T02:59:14;100296.03;;;9.11;100.00
66668;BME280;57205;51.438;-2.006;2023-03-21T03:01:41;100300.84;;;9.09;100.00
66668;BME280;57205;51.438;-2.006;2023-03-21T03:04:23;100290.97;;;9.09;100.00
66668;BME280;57205;51.438;-2.006;2023-03-21T03:11:49;100267.50;;;9.11;100.00
66668;BME280;57205;51.438;-2.006;2023-03-21T03:14:21;100262.16;;;9.11;100.00
66668;BME280;57205;51.438;-2.006;2023-03-21T03:19:29;100256.28;;;9.09;100.00
66668;BME280;57205;51.438;-2.006;2023-03-21T03:24:30;100261.91;;;9.13;100.00
66668;BME280;57205;51.438;-2.006;2023-03-21T03:26:56;100263.50;;;9.14;100.00
66668;BME280;57205;51.438;-2.006;2023-03-21T03:29:23;100254.69;;;9.13;100.00
66668;BME280;57205;51.438;-2.006;2023-03-21T03:32:52;100262.97;;;9.12;100.00
66668;BME280;57205;51.438;-2.006;2023-03-21T03:34:48;100262.69;;;9.13;100.00
66668;BME280;57205;51.438;-2.006;2023-03-21T03:37:15;100257.63;;;9.12;100.00
66668;BME280;57205;51.438;-2.006;2023-03-21T03:42:35;100248.53;;;9.13;100.00
66668;BME280;57205;51.438;-2.006;2023-03-21T03:45:03;100256.81;;;9.16;100.00
66668;BME280;57205;51.438;-2.006;2023-03-21T03:47:35;100256.81;;;9.16;100.00
66668;BME280;57205;51.438;-2.006;2023-03-21T03:52:32;100249.63;;;9.17;100.00
66668;BME280;57205;51.438;-2.006;2023-03-21T03:54:58;100245.38;;;9.16;100.00
66668;BME280;57205;51.438;-2.006;2023-03-21T03:57:25;100243.75;;;9.15;100.00
66668;BME280;57205;51.438;-2.006;2023-03-21T03:59:51;100241.88;;;9.15;100.00
66668;BME280;57205;51.438;-2.006;2023-03-21T04:02:16;100238.16;;;9.16;100.00
66668;BME280;57205;51.438;-2.006;2023-03-21T04:04:42;100229.91;;;9.18;100.00
66668;BME280;57205;51.438;-2.006;2023-03-21T04:07:07;100230.41;;;9.15;100.00
66668;BME280;57205;51.438;-2.006;2023-03-21T04:09:33;100219.72;;;9.15;100.00
66668;BME280;57205;51.438;-2.006;2023-03-21T04:11:58;100223.75;;;9.12;100.00
66668;BME280;57205;51.438;-2.006;2023-03-21T04:14:24;100219.19;;;9.08;100.00
66668;BME280;57205;51.438;-2.006;2023-03-21T04:16:49;100219.19;;;9.08;100.00
66668;BME280;57205;51.438;-2.006;2023-03-21T04:19:16;100203.16;;;9.08;100.00
66668;BME280;57205;51.438;-2.006;2023-03-21T04:21:42;100198.91;;;9.07;100.00
66668;BME280;57205;51.438;-2.006;2023-03-21T04:24:07;100205.31;;;9.06;100.00
66668;BME280;57205;51.438;-2.006;2023-03-21T04:26:33;100192.50;;;9.08;100.00
66668;BME280;57205;51.438;-2.006;2023-03-21T04:29:00;100190.38;;;9.10;100.00
66668;BME280;57205;51.438;-2.006;2023-03-21T04:31:26;100191.97;;;9.11;100.00
66668;BME280;57205;51.438;-2.006;2023-03-21T04:33:54;100190.63;;;9.13;100.00
66668;BME280;57205;51.438;-2.006;2023-03-21T04:36:20;100189.06;;;9.12;100.00
66668;BME280;57205;51.438;-2.006;2023-03-21T04:38:57;100192.50;;;9.13;100.00
66668;BME280;57205;51.438;-2.006;2023-03-21T04:41:28;100187.97;;;9.18;100.00
66668;BME280;57205;51.438;-2.006;2023-03-21T04:43:53;100190.38;;;9.20;100.00
66668;BME280;57205;51.438;-2.006;2023-03-21T04:46:19;100181.31;;;9.21;100.00
66668;BME280;57205;51.438;-2.006;2023-03-21T04:48:44;100176.25;;;9.19;100.00
66668;BME280;57205;51.438;-2.006;2023-03-21T04:51:11;100181.31;;;9.21;100.00
66668;BME280;57205;51.438;-2.006;2023-03-21T04:53:36;100182.13;;;9.21;100.00
66668;BME280;57205;51.438;-2.006;2023-03-21T04:56:02;100182.63;;;9.18;100.00
66668;BME280;57205;51.438;-2.006;2023-03-21T04:58:27;100181.84;;;9.23;100.00
66668;BME280;57205;51.438;-2.006;2023-03-21T05:00:54;100176.78;;;9.26;100.00
66668;BME280;57205;51.438;-2.006;2023-03-21T05:03:21;100180.25;;;9.27;100.00
66668;BME280;57205;51.438;-2.006;2023-03-21T05:05:46;100185.06;;;9.25;100.00
66668;BME280;57205;51.438;-2.006;2023-03-21T05:08:12;100185.59;;;9.27;100.00
66668;BME280;57205;51.438;-2.006;2023-03-21T05:10:37;100185.84;;;9.30;100.00
66668;BME280;57205;51.438;-2.006;2023-03-21T05:13:03;100180.25;;;9.32;100.00
66668;BME280;57205;51.438;-2.006;2023-03-21T05:15:28;100169.56;;;9.37;100.00
66668;BME280;57205;51.438;-2.006;2023-03-21T05:17:53;100165.84;;;9.38;100.00
66668;BME280;57205;51.438;-2.006;2023-03-21T05:20:19;100163.72;;;9.40;100.00
66668;BME280;57205;51.438;-2.006;2023-03-21T05:22:44;100168.78;;;9.41;100.00
66668;BME280;57205;51.438;-2.006;2023-03-21T05:25:10;100178.91;;;9.39;100.00
66668;BME280;57205;51.438;-2.006;2023-03-21T05:27:36;100174.94;;;9.42;100.00
66668;BME280;57205;51.438;-2.006;2023-03-21T05:30:03;100169.03;;;9.40;100.00
66668;BME280;57205;51.438;-2.006;2023-03-21T05:32:28;100163.44;;;9.41;100.00
66668;BME280;57205;51.438;-2.006;2023-03-21T05:34:53;100163.16;;;9.43;100.00
66668;BME280;57205;51.438;-2.006;2023-03-21T05:37:19;100167.69;;;9.42;100.00
66668;BME280;57205;51.438;-2.006;2023-03-21T05:39:44;100165.56;;;9.44;100.00
66668;BME280;57205;51.438;-2.006;2023-03-21T05:42:09;100164.75;;;9.44;100.00
66668;BME280;57205;51.438;-2.006;2023-03-21T05:44:35;100150.63;;;9.43;100.00
66668;BME280;57205;51.438;-2.006;2023-03-21T05:47:01;100151.94;;;9.46;100.00
66668;BME280;57205;51.438;-2.006;2023-03-21T05:49:28;100151.94;;;9.46;100.00
66668;BME280;57205;51.438;-2.006;2023-03-21T05:51:54;100145.00;;;9.45;100.00
66668;BME280;57205;51.438;-2.006;2023-03-21T05:54:20;100153.56;;;9.47;100.00
66668;BME280;57205;51.438;-2.006;2023-03-21T05:56:45;100153.56;;;9.47;100.00
66668;BME280;57205;51.438;-2.006;2023-03-21T05:59:10;100150.63;;;9.43;100.00
66668;BME280;57205;51.438;-2.006;2023-03-21T06:01:35;100155.97;;;9.43;100.00
66668;BME280;57205;51.438;-2.006;2023-03-21T06:04:01;100152.47;;;9.43;100.00
66668;BME280;57205;51.438;-2.006;2023-03-21T06:06:26;100149.53;;;9.44;100.00
66668;BME280;57205;51.438;-2.006;2023-03-21T06:08:51;100132.44;;;9.40;100.00
66668;BME280;57205;51.438;-2.006;2023-03-21T06:11:26;100139.13;;;9.38;100.00
66668;BME280;57205;51.438;-2.006;2023-03-21T06:13:52;100138.06;;;9.34;100.00
66668;BME280;57205;51.438;-2.006;2023-03-21T06:16:18;100123.91;;;9.28;100.00
66668;BME280;57205;51.438;-2.006;2023-03-21T06:18:43;100127.63;;;9.27;100.00
66668;BME280;57205;51.438;-2.006;2023-03-21T06:21:08;100124.72;;;9.24;100.00
66668;BME280;57205;51.438;-2.006;2023-03-21T06:23:34;100121.50;;;9.22;100.00
66668;BME280;57205;51.438;-2.006;2023-03-21T06:26:01;100119.38;;;9.19;100.00
66668;BME280;57205;51.438;-2.006;2023-03-21T06:28:27;100122.84;;;9.14;100.00
66668;BME280;57205;51.438;-2.006;2023-03-21T06:30:52;100129.53;;;9.12;100.00
66668;BME280;57205;51.438;-2.006;2023-03-21T06:33:17;100137.25;;;9.08;100.00
66668;BME280;57205;51.438;-2.006;2023-03-21T06:35:43;100138.03;;;9.09;100.00
66668;BME280;57205;51.438;-2.006;2023-03-21T06:38:08;100127.91;;;9.06;100.00
66668;BME280;57205;51.438;-2.006;2023-03-21T06:40:33;100140.97;;;9.07;100.00
66668;BME280;57205;51.438;-2.006;2023-03-21T06:42:58;100147.41;;;9.06;100.00
66668;BME280;57205;51.438;-2.006;2023-03-21T06:45:24;100154.31;;;9.07;100.00
66668;BME280;57205;51.438;-2.006;2023-03-21T06:47:49;100161.00;;;9.10;100.00
66668;BME280;57205;51.438;-2.006;2023-03-21T06:50:15;100160.47;;;9.13;100.00
66668;BME280;57205;51.438;-2.006;2023-03-21T06:52:40;100167.41;;;9.19;100.00
66668;BME280;57205;51.438;-2.006;2023-03-21T06:55:06;100157.00;;;9.22;100.00
66668;BME280;57205;51.438;-2.006;2023-03-21T06:57:31;100157.28;;;9.26;100.00
66668;BME280;57205;51.438;-2.006;2023-03-21T06:59:56;100154.09;;;9.29;100.00
66668;BME280;57205;51.438;-2.006;2023-03-21T07:02:21;100148.75;;;9.34;100.00
66668;BME280;57205;51.438;-2.006;2023-03-21T07:04:47;100150.88;;;9.42;100.00
66668;BME280;57205;51.438;-2.006;2023-03-21T07:07:12;100158.88;;;9.47;100.00
66668;BME280;57205;51.438;-2.006;2023-03-21T07:09:38;100149.53;;;9.54;100.00
66668;BME280;57205;51.438;-2.006;2023-03-21T07:12:04;100148.97;;;9.62;100.00
66668;BME280;57205;51.438;-2.006;2023-03-21T07:14:29;100136.94;;;9.70;100.00
66668;BME280;57205;51.438;-2.006;2023-03-21T07:16:56;100133.75;;;9.78;100.00
66668;BME280;57205;51.438;-2.006;2023-03-21T07:19:21;100124.91;;;9.88;100.00
66668;BME280;57205;51.438;-2.006;2023-03-21T07:21:46;100117.91;;;10.02;100.00
66668;BME280;57205;51.438;-2.006;2023-03-21T07:24:11;100120.06;;;10.63;100.00
66668;BME280;57205;51.438;-2.006;2023-03-21T07:26:37;100121.66;;;11.42;100.00
66668;BME280;57205;51.438;-2.006;2023-03-21T07:29:03;100105.78;;;11.79;100.00
66668;BME280;57205;51.438;-2.006;2023-03-21T07:31:28;100110.25;;;11.89;100.00
66668;BME280;57205;51.438;-2.006;2023-03-21T07:33:53;100106.84;;;11.78;100.00
66668;BME280;57205;51.438;-2.006;2023-03-21T07:36:19;100102.75;;;11.57;100.00
66668;BME280;57205;51.438;-2.006;2023-03-21T07:38:45;100100.88;;;11.29;100.00
66668;BME280;57205;51.438;-2.006;2023-03-21T07:41:11;100107.38;;;11.18;100.00
66668;BME280;57205;51.438;-2.006;2023-03-21T07:43:36;100109.66;;;11.01;100.00
66668;BME280;57205;51.438;-2.006;2023-03-21T07:46:02;100113.78;;;10.88;100.00
66668;BME280;57205;51.438;-2.006;2023-03-21T07:48:27;100123.44;;;10.84;100.00
66668;BME280;57205;51.438;-2.006;2023-03-21T07:50:53;100125.88;;;10.80;100.00
66668;BME280;57205;51.438;-2.006;2023-03-21T07:53:18;100119.47;;;10.76;100.00
66668;BME280;57205;51.438;-2.006;2023-03-21T07:55:44;100123.22;;;10.75;100.00
66668;BME280;57205;51.438;-2.006;2023-03-21T07:58:13;100132.88;;;10.71;100.00
66668;BME280;57205;51.438;-2.006;2023-03-21T08:00:38;100125.91;;;10.75;100.00
66668;BME280;57205;51.438;-2.006;2023-03-21T08:03:03;100128.88;;;10.69;100.00
66668;BME280;57205;51.438;-2.006;2023-03-21T08:05:29;100135.56;;;10.71;100.00
66668;BME280;57205;51.438;-2.006;2023-03-21T08:07:57;100131.25;;;10.75;100.00
66668;BME280;57205;51.438;-2.006;2023-03-21T08:10:22;100126.44;;;10.77;100.00
66668;BME280;57205;51.438;-2.006;2023-03-21T08:12:47;100128.50;;;10.86;100.00
66668;BME280;57205;51.438;-2.006;2023-03-21T08:15:13;100123.38;;;10.94;100.00
66668;BME280;57205;51.438;-2.006;2023-03-21T08:17:39;100128.59;;;11.09;100.00
66668;BME280;57205;51.438;-2.006;2023-03-21T08:20:05;100123.09;;;11.29;100.00
66668;BME280;57205;51.438;-2.006;2023-03-21T08:22:35;100124.84;;;11.44;100.00
66668;BME280;57205;51.438;-2.006;2023-03-21T08:25:04;100119.88;;;11.61;100.00
66668;BME280;57205;51.438;-2.006;2023-03-21T08:27:30;100119.47;;;11.77;100.00
66668;BME280;57205;51.438;-2.006;2023-03-21T08:29:55;100114.78;;;11.88;100.00
66668;BME280;57205;51.438;-2.006;2023-03-21T08:32:20;100103.97;;;11.98;100.00
66668;BME280;57205;51.438;-2.006;2023-03-21T08:34:53;100105.78;;;12.45;100.00
66668;BME280;57205;51.438;-2.006;2023-03-21T08:37:18;100098.09;;;12.94;100.00
66668;BME280;57205;51.438;-2.006;2023-03-21T08:39:43;100094.78;;;13.02;100.00
66668;BME280;57205;51.438;-2.006;2023-03-21T08:42:09;100096.47;;;13.30;100.00
66668;BME280;57205;51.438;-2.006;2023-03-21T08:44:34;100103.81;;;13.57;100.00
66668;BME280;57205;51.438;-2.006;2023-03-21T08:46:59;100105.03;;;13.92;100.00
66668;BME280;57205;51.438;-2.006;2023-03-21T08:49:25;100099.53;;;14.10;100.00
66668;BME280;57205;51.438;-2.006;2023-03-21T08:51:54;100099.34;;;14.20;100.00
66668;BME280;57205;51.438;-2.006;2023-03-21T08:54:20;100099.66;;;13.92;100.00
66668;BME280;57205;51.438;-2.006;2023-03-21T08:56:45;100099.47;;;13.75;100.00
66668;BME280;57205;51.438;-2.006;2023-03-21T08:59:10;100101.50;;;13.50;100.00
66668;BME280;57205;51.438;-2.006;2023-03-21T09:01:36;100104.81;;;13.29;100.00
66668;BME280;57205;51.438;-2.006;2023-03-21T09:04:01;100112.63;;;13.12;100.00
66668;BME280;57205;51.438;-2.006;2023-03-21T09:06:26;100113.13;;;12.95;100.00
66668;BME280;57205;51.438;-2.006;2023-03-21T09:08:53;100115.66;;;12.87;100.00
66668;BME280;57205;51.438;-2.006;2023-03-21T09:11:20;100111.53;;;12.94;100.00
66668;BME280;57205;51.438;-2.006;2023-03-21T09:13:46;100113.13;;;13.46;100.00
66668;BME280;57205;51.438;-2.006;2023-03-21T09:16:11;100115.00;;;14.18;100.00
66668;BME280;57205;51.438;-2.006;2023-03-21T09:18:36;100118.53;;;14.68;100.00
66668;BME280;57205;51.438;-2.006;2023-03-21T09:21:19;100120.50;;;14.90;100.00
66668;BME280;57205;51.438;-2.006;2023-03-21T09:23:45;100122.41;;;14.76;100.00
66668;BME280;57205;51.438;-2.006;2023-03-21T09:26:12;100109.63;;;14.45;100.00
66668;BME280;57205;51.438;-2.006;2023-03-21T09:28:37;100110.22;;;14.42;100.00
66668;BME280;57205;51.438;-2.006;2023-03-21T09:31:03;100109.41;;;14.55;100.00
66668;BME280;57205;51.438;-2.006;2023-03-21T09:33:29;100106.19;;;14.67;100.00
66668;BME280;57205;51.438;-2.006;2023-03-21T09:35:55;100115.84;;;14.68;100.00
66668;BME280;57205;51.438;-2.006;2023-03-21T09:38:21;100112.22;;;14.50;100.00
66668;BME280;57205;51.438;-2.006;2023-03-21T09:41:01;100107.25;;;14.30;100.00
66668;BME280;57205;51.438;-2.006;2023-03-21T09:46:07;100121.31;;;14.14;100.00
66668;BME280;57205;51.438;-2.006;2023-03-21T09:48:37;100124.25;;;13.85;100.00
66668;BME280;57205;51.438;-2.006;2023-03-21T09:51:07;100124.72;;;13.60;100.00
66668;BME280;57205;51.438;-2.006;2023-03-21T09:53:35;100103.41;;;13.50;100.00
66668;BME280;57205;51.438;-2.006;2023-03-21T09:56:03;100107.91;;;13.68;100.00
66668;BME280;57205;51.438;-2.006;2023-03-21T09:58:36;100100.25;;;13.89;100.00
66668;BME280;57205;51.438;-2.006;2023-03-21T10:03:46;100086.88;;;13.56;100.00
66668;BME280;57205;51.438;-2.006;2023-03-21T10:06:13;100098.63;;;13.47;100.00
66668;BME280;57205;51.438;-2.006;2023-03-21T10:08:39;100092.38;;;13.65;100.00
66668;BME280;57205;51.438;-2.006;2023-03-21T10:11:11;100094.88;;;14.43;100.00
66668;BME280;57205;51.438;-2.006;2023-03-21T10:13:48;100090.59;;;15.66;100.00
66668;BME280;57205;51.438;-2.006;2023-03-21T10:16:16;100089.66;;;16.18;97.32
66668;BME280;57205;51.438;-2.006;2023-03-21T10:18:43;100078.19;;;16.04;92.51
66668;BME280;57205;51.438;-2.006;2023-03-21T10:21:11;100085.00;;;15.93;94.98
66668;BME280;57205;51.438;-2.006;2023-03-21T10:23:40;100076.91;;;15.93;93.72
66668;BME280;57205;51.438;-2.006;2023-03-21T10:26:06;100074.81;;;15.90;97.43
66668;BME280;57205;51.438;-2.006;2023-03-21T10:28:34;100077.59;;;16.24;94.65
66668;BME280;57205;51.438;-2.006;2023-03-21T10:31:01;100056.97;;;16.28;92.20
66668;BME280;57205;51.438;-2.006;2023-03-21T10:33:35;100058.59;;;16.38;91.32
66668;BME280;57205;51.438;-2.006;2023-03-21T10:36:02;100062.53;;;16.23;92.22
66668;BME280;57205;51.438;-2.006;2023-03-21T10:38:29;100061.72;;;16.14;92.35
66668;BME280;57205;51.438;-2.006;2023-03-21T10:40:54;100064.88;;;16.08;95.14
66668;BME280;57205;51.438;-2.006;2023-03-21T10:45:52;100058.00;;;15.93;96.33
66668;BME280;57205;51.438;-2.006;2023-03-21T10:48:17;100059.72;;;15.81;96.39
66668;BME280;57205;51.438;-2.006;2023-03-21T10:50:43;100066.38;;;15.44;95.18
66668;BME280;57205;51.438;-2.006;2023-03-21T10:53:18;100062.19;;;15.38;97.21
66668;BME280;57205;51.438;-2.006;2023-03-21T10:55:45;100060.84;;;15.27;98.01
66668;BME280;57205;51.438;-2.006;2023-03-21T10:58:17;100062.50;;;15.14;98.26
66668;BME280;57205;51.438;-2.006;2023-03-21T11:00:43;100065.13;;;15.06;100.00
66668;BME280;57205;51.438;-2.006;2023-03-21T11:03:20;100066.44;;;15.08;100.00
66668;BME280;57205;51.438;-2.006;2023-03-21T11:05:46;100066.00;;;14.93;100.00
66668;BME280;57205;51.438;-2.006;2023-03-21T11:08:14;100071.50;;;14.88;100.00
66668;BME280;57205;51.438;-2.006;2023-03-21T11:13:32;100070.91;;;14.55;100.00
66668;BME280;57205;51.438;-2.006;2023-03-21T11:18:30;100072.31;;;14.52;100.00
66668;BME280;57205;51.438;-2.006;2023-03-21T11:20:58;100069.69;;;14.61;100.00
66668;BME280;57205;51.438;-2.006;2023-03-21T11:23:30;100071.06;;;14.72;100.00
66668;BME280;57205;51.438;-2.006;2023-03-21T11:25:56;100072.84;;;14.77;100.00
66668;BME280;57205;51.438;-2.006;2023-03-21T11:28:23;100071.50;;;14.88;100.00
66668;BME280;57205;51.438;-2.006;2023-03-21T11:30:56;100079.59;;;14.88;100.00
66668;BME280;57205;51.438;-2.006;2023-03-21T11:33:24;100075.97;;;14.92;100.00
66668;BME280;57205;51.438;-2.006;2023-03-21T11:36:00;100060.06;;;15.04;100.00
66668;BME280;57205;51.438;-2.006;2023-03-21T11:38:31;100072.13;;;15.07;100.00
66668;BME280;57205;51.438;-2.006;2023-03-21T11:40:57;100064.06;;;15.07;100.00
66668;BME280;57205;51.438;-2.006;2023-03-21T11:43:27;100056.81;;;15.16;100.00
66668;BME280;57205;51.438;-2.006;2023-03-21T11:45:57;100075.28;;;15.09;100.00
66668;BME280;57205;51.438;-2.006;2023-03-21T11:48:23;100058.91;;;14.97;100.00
66668;BME280;57205;51.438;-2.006;2023-03-21T11:50:49;100067.72;;;14.89;100.00
66668;BME280;57205;51.438;-2.006;2023-03-21T11:53:33;100080.44;;;14.75;100.00
66668;BME280;57205;51.438;-2.006;2023-03-21T11:56:21;100069.69;;;14.61;100.00
66668;BME280;57205;51.438;-2.006;2023-03-21T11:59:12;100070.38;;;14.66;100.00
66668;BME280;57205;51.438;-2.006;2023-03-21T12:01:40;100067.84;;;14.84;100.00
66668;BME280;57205;51.438;-2.006;2023-03-21T12:06:52;100074.84;;;15.07;100.00
66668;BME280;57205;51.438;-2.006;2023-03-21T12:11:51;100074.69;;;15.12;100.00
66668;BME280;57205;51.438;-2.006;2023-03-21T12:19:36;100073.16;;;15.41;100.00
66668;BME280;57205;51.438;-2.006;2023-03-21T12:30:00;100056.22;;;15.27;100.00
66668;BME280;57205;51.438;-2.006;2023-03-21T12:35:01;100059.03;;;15.14;100.00
66668;BME280;57205;51.438;-2.006;2023-03-21T12:45:24;100050.25;;;15.30;100.00
66668;BME280;57205;51.438;-2.006;2023-03-21T12:48:16;100045.50;;;15.36;100.00
66668;BME280;57205;51.438;-2.006;2023-03-21T12:50:38;100046.72;;;15.52;100.00
66668;BME280;57205;51.438;-2.006;2023-03-21T12:53:17;100051.22;;;15.65;100.00
66668;BME280;57205;51.438;-2.006;2023-03-21T12:55:50;100049.53;;;15.78;100.00
66668;BME280;57205;51.438;-2.006;2023-03-21T12:58:17;100052.22;;;15.78;100.00
66668;BME280;57205;51.438;-2.006;2023-03-21T13:00:44;100053.53;;;15.89;99.21
66668;BME280;57205;51.438;-2.006;2023-03-21T13:03:13;100058.75;;;15.77;98.75
66668;BME280;57205;51.438;-2.006;2023-03-21T13:05:46;100056.47;;;15.70;97.56
66668;BME280;57205;51.438;-2.006;2023-03-21T13:10:38;100048.69;;;15.69;98.00
66668;BME280;57205;51.438;-2.006;2023-03-21T13:23:03;100035.78;;;15.48;89.37
66668;BME280;57205;51.438;-2.006;2023-03-21T13:25:30;100045.91;;;15.43;85.22
66668;BME280;57205;51.438;-2.006;2023-03-21T13:28:01;100044.03;;;15.52;86.48
66668;BME280;57205;51.438;-2.006;2023-03-21T13:30:28;100038.50;;;15.57;83.51
66668;BME280;57205;51.438;-2.006;2023-03-21T13:33:02;100042.44;;;15.51;79.92
66668;BME280;57205;51.438;-2.006;2023-03-21T13:35:35;100037.31;;;15.41;78.86
66668;BME280;57205;51.438;-2.006;2023-03-21T13:40:33;100041.84;;;15.62;77.30
66668;BME280;57205;51.438;-2.006;2023-03-21T13:42:59;100047.63;;;15.70;78.88
66668;BME280;57205;51.438;-2.006;2023-03-21T13:48:40;100048.28;;;15.44;78.35
66668;BME280;57205;51.438;-2.006;2023-03-21T13:51:05;100052.16;;;15.38;77.77
66668;BME280;57205;51.438;-2.006;2023-03-21T13:53:32;100037.69;;;15.26;77.94
66668;BME280;57205;51.438;-2.006;2023-03-21T13:58:33;100053.03;;;14.95;78.85
66668;BME280;57205;51.438;-2.006;2023-03-21T14:03:40;100047.00;;;14.98;81.05
66668;BME280;57205;51.438;-2.006;2023-03-21T14:06:05;100056.44;;;15.09;81.21
66668;BME280;57205;51.438;-2.006;2023-03-21T14:08:33;100051.78;;;15.23;79.87
66668;BME280;57205;51.438;-2.006;2023-03-21T14:10:59;100051.09;;;15.39;76.92
66668;BME280;57205;51.438;-2.006;2023-03-21T14:13:28;100053.09;;;15.56;76.02
66668;BME280;57205;51.438;-2.006;2023-03-21T14:15:54;100045.50;;;15.58;74.17
66668;BME280;57205;51.438;-2.006;2023-03-21T14:18:22;100032.81;;;15.58;71.86
66668;BME280;57205;51.438;-2.006;2023-03-21T14:20:54;100036.69;;;15.75;69.90
66668;BME280;57205;51.438;-2.006;2023-03-21T14:23:20;100040.84;;;15.89;71.91
66668;BME280;57205;51.438;-2.006;2023-03-21T14:25:45;100031.50;;;16.04;70.64